sensor_id;sensor_type;location;lat;lon;timestamp;P1;durP1;ratioP1;P2;durP2;ratioP2
6149;SDS011;3106;42.670;23.318;2023-02-17T00:01:50;72.63;;;23.63;;
6149;SDS011;3106;42.670;23.318;2023-02-17T00:04:16;58.73;;;23.53;;
6149;SDS011;3106;42.670;23.318;2023-02-17T00:06:43;55.87;;;23.30;;
6149;SDS011;3106;42.670;23.318;2023-02-17T00:09:11;60.90;;;23.73;;
6149;SDS011;3106;42.670;23.318;2023-02-17T00:11:38;64.23;;;23.60;;
6149;SDS011;3106;42.670;23.318;2023-02-17T00:14:05;68.70;;;22.20;;
6149;SDS011;3106;42.670;23.318;2023-02-17T00:16:32;62.70;;;22.77;;
6149;SDS011;3106;42.670;23.318;2023-02-17T00:19:00;61.53;;;24.10;;
6149;SDS011;3106;42.670;23.318;2023-02-17T00:21:47;57.13;;;23.50;;
6149;SDS011;3106;42.670;23.318;2023-02-17T00:24:16;63.33;;;22.87;;
6149;SDS011;3106;42.670;23.318;2023-02-17T00:26:42;59.37;;;23.40;;
6149;SDS011;3106;42.670;23.318;2023-02-17T00:29:09;66.73;;;24.50;;
6149;SDS011;3106;42.670;23.318;2023-02-17T00:31:36;65.77;;;25.70;;
6149;SDS011;3106;42.670;23.318;2023-02-17T00:34:03;62.00;;;25.30;;
6149;SDS011;3106;42.670;23.318;2023-02-17T00:36:29;60.67;;;22.73;;
6149;SDS011;3106;42.670;23.318;2023-02-17T00:38:56;54.90;;;22.80;;
6149;SDS011;3106;42.670;23.318;2023-02-17T00:41:25;56.20;;;23.90;;
6149;SDS011;3106;42.670;23.318;2023-02-17T00:43:52;63.77;;;24.23;;
6149;SDS011;3106;42.670;23.318;2023-02-17T00:46:19;60.00;;;25.40;;
6149;SDS011;3106;42.670;23.318;2023-02-17T00:48:47;61.80;;;24.87;;
6149;SDS011;3106;42.670;23.318;2023-02-17T00:51:14;59.20;;;25.13;;
6149;SDS011;3106;42.670;23.318;2023-02-17T00:53:42;83.63;;;24.93;;
6149;SDS011;3106;42.670;23.318;2023-02-17T00:56:09;56.80;;;22.07;;
6149;SDS011;3106;42.670;23.318;2023-02-17T00:58:38;58.93;;;22.97;;
6149;SDS011;3106;42.670;23.318;2023-02-17T01:01:05;56.37;;;23.23;;
6149;SDS011;3106;42.670;23.318;2023-02-17T01:03:33;61.03;;;23.27;;
6149;SDS011;3106;42.670;23.318;2023-02-17T01:06:03;62.70;;;24.67;;
6149;SDS011;3106;42.670;23.318;2023-02-17T01:08:31;63.00;;;22.83;;
6149;SDS011;3106;42.670;23.318;2023-02-17T01:10:58;55.20;;;22.50;;
6149;SDS011;3106;42.670;23.318;2023-02-17T01:13:25;55.70;;;23.93;;
6149;SDS011;3106;42.670;23.318;2023-02-17T01:15:53;71.27;;;23.70;;
6149;SDS011;3106;42.670;23.318;2023-02-17T01:18:21;55.00;;;22.60;;
6149;SDS011;3106;42.670;23.318;2023-02-17T01:20:49;66.73;;;23.47;;
6149;SDS011;3106;42.670;23.318;2023-02-17T01:23:16;55.93;;;22.00;;
6149;SDS011;3106;42.670;23.318;2023-02-17T01:25:44;68.27;;;22.80;;
6149;SDS011;3106;42.670;23.318;2023-02-17T01:28:15;55.13;;;23.40;;
6149;SDS011;3106;42.670;23.318;2023-02-17T01:30:44;74.20;;;23.60;;
6149;SDS011;3106;42.670;23.318;2023-02-17T01:33:12;61.97;;;22.33;;
6149;SDS011;3106;42.670;23.318;2023-02-17T01:35:39;63.50;;;22.80;;
6149;SDS011;3106;42.670;23.318;2023-02-17T01:38:06;63.10;;;23.60;;
6149;SDS011;3106;42.670;23.318;2023-02-17T01:40:33;61.23;;;23.60;;
6149;SDS011;3106;42.670;23.318;2023-02-17T01:42:59;54.67;;;22.60;;
6149;SDS011;3106;42.670;23.318;2023-02-17T01:45:34;53.40;;;21.30;;
6149;SDS011;3106;42.670;23.318;2023-02-17T01:48:04;60.83;;;23.77;;
6149;SDS011;3106;42.670;23.318;2023-02-17T01:50:38;56.93;;;21.87;;
6149;SDS011;3106;42.670;23.318;2023-02-17T01:53:08;65.40;;;22.40;;
6149;SDS011;3106;42.670;23.318;2023-02-17T01:55:38;58.33;;;23.00;;
6149;SDS011;3106;42.670;23.318;2023-02-17T01:58:07;56.77;;;22.17;;
6149;SDS011;3106;42.670;23.318;2023-02-17T02:00:39;55.00;;;22.20;;
6149;SDS011;3106;42.670;23.318;2023-02-17T02:03:08;70.50;;;24.20;;
6149;SDS011;3106;42.670;23.318;2023-02-17T02:05:40;65.33;;;21.97;;
6149;SDS011;3106;42.670;23.318;2023-02-17T02:08:08;54.07;;;21.20;;
6149;SDS011;3106;42.670;23.318;2023-02-17T02:10:36;65.70;;;22.47;;
6149;SDS011;3106;42.670;23.318;2023-02-17T02:13:03;60.70;;;22.03;;
6149;SDS011;3106;42.670;23.318;2023-02-17T02:15:32;56.50;;;22.50;;
6149;SDS011;3106;42.670;23.318;2023-02-17T02:18:08;70.87;;;23.73;;
6149;SDS011;3106;42.670;23.318;2023-02-17T02:29:59;60.83;;;22.20;;
6149;SDS011;3106;42.670;23.318;2023-02-17T02:32:48;58.23;;;24.50;;
6149;SDS011;3106;42.670;23.318;2023-02-17T02:35:26;59.87;;;24.00;;
6149;SDS011;3106;42.670;23.318;2023-02-17T02:38:00;55.47;;;22.77;;
6149;SDS011;3106;42.670;23.318;2023-02-17T02:40:33;68.30;;;24.30;;
6149;SDS011;3106;42.670;23.318;2023-02-17T02:43:03;56.10;;;23.47;;
6149;SDS011;3106;42.670;23.318;2023-02-17T02:45:30;60.33;;;24.27;;
6149;SDS011;3106;42.670;23.318;2023-02-17T02:48:00;64.20;;;24.07;;
6149;SDS011;3106;42.670;23.318;2023-02-17T02:50:29;55.50;;;24.37;;
6149;SDS011;3106;42.670;23.318;2023-02-17T02:53:22;55.73;;;21.80;;
6149;SDS011;3106;42.670;23.318;2023-02-17T02:56:09;69.27;;;23.33;;
6149;SDS011;3106;42.670;23.318;2023-02-17T02:58:46;59.73;;;23.60;;
6149;SDS011;3106;42.670;23.318;2023-02-17T03:01:21;52.80;;;22.50;;
6149;SDS011;3106;42.670;23.318;2023-02-17T03:03:57;59.97;;;23.00;;
6149;SDS011;3106;42.670;23.318;2023-02-17T03:06:34;65.27;;;24.10;;
6149;SDS011;3106;42.670;23.318;2023-02-17T03:09:07;52.27;;;22.93;;
6149;SDS011;3106;42.670;23.318;2023-02-17T03:11:37;56.47;;;20.93;;
6149;SDS011;3106;42.670;23.318;2023-02-17T03:14:06;51.10;;;21.73;;
6149;SDS011;3106;42.670;23.318;2023-02-17T03:16:34;57.50;;;21.63;;
6149;SDS011;3106;42.670;23.318;2023-02-17T03:19:04;53.27;;;20.87;;
6149;SDS011;3106;42.670;23.318;2023-02-17T03:21:32;63.77;;;21.13;;
6149;SDS011;3106;42.670;23.318;2023-02-17T03:24:01;61.50;;;22.50;;
6149;SDS011;3106;42.670;23.318;2023-02-17T03:26:27;57.70;;;22.50;;
6149;SDS011;3106;42.670;23.318;2023-02-17T03:28:54;53.53;;;23.17;;
6149;SDS011;3106;42.670;23.318;2023-02-17T03:31:21;59.90;;;21.90;;
6149;SDS011;3106;42.670;23.318;2023-02-17T03:33:48;53.17;;;20.33;;
6149;SDS011;3106;42.670;23.318;2023-02-17T03:36:16;48.90;;;20.30;;
6149;SDS011;3106;42.670;23.318;2023-02-17T03:38:43;54.13;;;20.93;;
6149;SDS011;3106;42.670;23.318;2023-02-17T03:41:18;49.50;;;20.50;;
6149;SDS011;3106;42.670;23.318;2023-02-17T03:43:49;56.20;;;20.43;;
6149;SDS011;3106;42.670;23.318;2023-02-17T03:46:16;46.53;;;18.07;;
6149;SDS011;3106;42.670;23.318;2023-02-17T03:48:43;44.83;;;18.63;;
6149;SDS011;3106;42.670;23.318;2023-02-17T03:51:11;58.40;;;18.30;;
6149;SDS011;3106;42.670;23.318;2023-02-17T03:53:40;66.83;;;21.10;;
6149;SDS011;3106;42.670;23.318;2023-02-17T03:56:08;55.33;;;21.10;;
6149;SDS011;3106;42.670;23.318;2023-02-17T03:58:37;51.37;;;21.97;;
6149;SDS011;3106;42.670;23.318;2023-02-17T04:01:05;45.77;;;20.47;;
6149;SDS011;3106;42.670;23.318;2023-02-17T04:03:32;48.60;;;20.83;;
6149;SDS011;3106;42.670;23.318;2023-02-17T04:06:00;46.33;;;19.67;;
6149;SDS011;3106;42.670;23.318;2023-02-17T04:08:27;55.43;;;19.57;;
6149;SDS011;3106;42.670;23.318;2023-02-17T04:10:57;54.27;;;20.33;;
6149;SDS011;3106;42.670;23.318;2023-02-17T04:13:25;58.27;;;20.50;;
6149;SDS011;3106;42.670;23.318;2023-02-17T04:15:52;53.60;;;21.03;;
6149;SDS011;3106;42.670;23.318;2023-02-17T04:18:19;61.50;;;21.23;;
6149;SDS011;3106;42.670;23.318;2023-02-17T04:20:47;55.83;;;22.10;;
6149;SDS011;3106;42.670;23.318;2023-02-17T04:23:15;47.03;;;19.70;;
6149;SDS011;3106;42.670;23.318;2023-02-17T04:25:43;56.63;;;21.40;;
6149;SDS011;3106;42.670;23.318;2023-02-17T04:28:12;61.23;;;21.23;;
6149;SDS011;3106;42.670;23.318;2023-02-17T04:30:41;65.50;;;20.90;;
6149;SDS011;3106;42.670;23.318;2023-02-17T04:33:08;52.77;;;20.00;;
6149;SDS011;3106;42.670;23.318;2023-02-17T04:35:35;44.83;;;20.10;;
6149;SDS011;3106;42.670;23.318;2023-02-17T04:38:02;55.53;;;20.07;;
6149;SDS011;3106;42.670;23.318;2023-02-17T04:40:30;44.63;;;18.30;;
6149;SDS011;3106;42.670;23.318;2023-02-17T04:42:58;48.87;;;19.20;;
6149;SDS011;3106;42.670;23.318;2023-02-17T04:45:27;46.50;;;18.97;;
6149;SDS011;3106;42.670;23.318;2023-02-17T04:47:54;55.43;;;18.43;;
6149;SDS011;3106;42.670;23.318;2023-02-17T04:50:21;44.60;;;18.17;;
6149;SDS011;3106;42.670;23.318;2023-02-17T04:52:48;56.93;;;18.93;;
6149;SDS011;3106;42.670;23.318;2023-02-17T04:55:15;54.03;;;19.30;;
6149;SDS011;3106;42.670;23.318;2023-02-17T04:57:42;43.70;;;17.97;;
6149;SDS011;3106;42.670;23.318;2023-02-17T05:00:09;41.67;;;17.90;;
6149;SDS011;3106;42.670;23.318;2023-02-17T05:02:38;49.90;;;19.30;;
6149;SDS011;3106;42.670;23.318;2023-02-17T05:05:05;55.93;;;19.93;;
6149;SDS011;3106;42.670;23.318;2023-02-17T05:07:32;63.30;;;21.40;;
6149;SDS011;3106;42.670;23.318;2023-02-17T05:09:59;48.63;;;18.57;;
6149;SDS011;3106;42.670;23.318;2023-02-17T05:12:26;45.77;;;18.87;;
6149;SDS011;3106;42.670;23.318;2023-02-17T05:14:53;52.93;;;18.97;;
6149;SDS011;3106;42.670;23.318;2023-02-17T05:17:20;43.20;;;19.73;;
6149;SDS011;3106;42.670;23.318;2023-02-17T05:19:48;48.97;;;19.27;;
6149;SDS011;3106;42.670;23.318;2023-02-17T05:22:15;65.27;;;23.17;;
6149;SDS011;3106;42.670;23.318;2023-02-17T05:24:42;49.77;;;19.87;;
6149;SDS011;3106;42.670;23.318;2023-02-17T05:27:09;55.90;;;21.30;;
6149;SDS011;3106;42.670;23.318;2023-02-17T05:29:38;52.70;;;19.33;;
6149;SDS011;3106;42.670;23.318;2023-02-17T05:32:04;43.10;;;18.10;;
6149;SDS011;3106;42.670;23.318;2023-02-17T05:34:31;54.63;;;20.17;;
6149;SDS011;3106;42.670;23.318;2023-02-17T05:37:00;60.27;;;25.00;;
6149;SDS011;3106;42.670;23.318;2023-02-17T05:39:29;46.10;;;20.10;;
6149;SDS011;3106;42.670;23.318;2023-02-17T05:41:56;52.67;;;20.10;;
6149;SDS011;3106;42.670;23.318;2023-02-17T05:44:22;56.67;;;19.50;;
6149;SDS011;3106;42.670;23.318;2023-02-17T05:46:49;50.67;;;19.20;;
6149;SDS011;3106;42.670;23.318;2023-02-17T05:49:16;63.03;;;25.30;;
6149;SDS011;3106;42.670;23.318;2023-02-17T05:51:43;47.33;;;19.73;;
6149;SDS011;3106;42.670;23.318;2023-02-17T05:54:11;54.97;;;18.30;;
6149;SDS011;3106;42.670;23.318;2023-02-17T05:56:38;45.13;;;19.67;;
6149;SDS011;3106;42.670;23.318;2023-02-17T05:59:05;46.07;;;18.00;;
6149;SDS011;3106;42.670;23.318;2023-02-17T06:01:32;45.57;;;20.00;;
6149;SDS011;3106;42.670;23.318;2023-02-17T06:03:58;54.27;;;19.70;;
6149;SDS011;3106;42.670;23.318;2023-02-17T06:06:25;61.93;;;21.33;;
6149;SDS011;3106;42.670;23.318;2023-02-17T06:08:52;49.60;;;21.00;;
6149;SDS011;3106;42.670;23.318;2023-02-17T06:11:20;45.93;;;19.97;;
6149;SDS011;3106;42.670;23.318;2023-02-17T06:13:47;50.60;;;20.20;;
6149;SDS011;3106;42.670;23.318;2023-02-17T06:16:14;62.90;;;22.47;;
6149;SDS011;3106;42.670;23.318;2023-02-17T06:18:40;48.17;;;21.40;;
6149;SDS011;3106;42.670;23.318;2023-02-17T06:21:07;50.50;;;20.10;;
6149;SDS011;3106;42.670;23.318;2023-02-17T06:23:34;49.97;;;21.93;;
6149;SDS011;3106;42.670;23.318;2023-02-17T06:26:01;52.43;;;21.40;;
6149;SDS011;3106;42.670;23.318;2023-02-17T06:28:30;54.47;;;21.10;;
6149;SDS011;3106;42.670;23.318;2023-02-17T06:30:56;42.07;;;18.80;;
6149;SDS011;3106;42.670;23.318;2023-02-17T06:33:23;44.73;;;19.00;;
6149;SDS011;3106;42.670;23.318;2023-02-17T06:35:50;49.17;;;19.03;;
6149;SDS011;3106;42.670;23.318;2023-02-17T06:38:18;48.70;;;20.50;;
6149;SDS011;3106;42.670;23.318;2023-02-17T06:40:45;45.17;;;18.43;;
6149;SDS011;3106;42.670;23.318;2023-02-17T06:43:12;57.30;;;20.20;;
6149;SDS011;3106;42.670;23.318;2023-02-17T06:45:40;42.90;;;18.83;;
6149;SDS011;3106;42.670;23.318;2023-02-17T06:48:07;50.27;;;20.10;;
6149;SDS011;3106;42.670;23.318;2023-02-17T06:50:35;47.87;;;18.20;;
6149;SDS011;3106;42.670;23.318;2023-02-17T06:53:02;46.87;;;18.90;;
6149;SDS011;3106;42.670;23.318;2023-02-17T06:55:28;59.93;;;20.00;;
6149;SDS011;3106;42.670;23.318;2023-02-17T06:57:55;49.80;;;20.47;;
6149;SDS011;3106;42.670;23.318;2023-02-17T07:00:22;44.67;;;20.80;;
6149;SDS011;3106;42.670;23.318;2023-02-17T07:02:50;52.67;;;23.60;;
6149;SDS011;3106;42.670;23.318;2023-02-17T07:05:17;57.20;;;24.87;;
6149;SDS011;3106;42.670;23.318;2023-02-17T07:07:44;60.97;;;24.70;;
6149;SDS011;3106;42.670;23.318;2023-02-17T07:10:11;58.77;;;22.10;;
6149;SDS011;3106;42.670;23.318;2023-02-17T07:12:38;48.17;;;19.30;;
6149;SDS011;3106;42.670;23.318;2023-02-17T07:15:05;56.83;;;20.37;;
6149;SDS011;3106;42.670;23.318;2023-02-17T07:17:32;52.67;;;21.53;;
6149;SDS011;3106;42.670;23.318;2023-02-17T07:20:04;56.73;;;19.50;;
6149;SDS011;3106;42.670;23.318;2023-02-17T07:22:33;48.00;;;20.87;;
6149;SDS011;3106;42.670;23.318;2023-02-17T07:25:01;53.87;;;21.77;;
6149;SDS011;3106;42.670;23.318;2023-02-17T07:27:28;52.40;;;20.90;;
6149;SDS011;3106;42.670;23.318;2023-02-17T07:29:55;50.13;;;19.27;;
6149;SDS011;3106;42.670;23.318;2023-02-17T07:32:22;42.87;;;18.47;;
6149;SDS011;3106;42.670;23.318;2023-02-17T07:34:49;49.87;;;20.53;;
6149;SDS011;3106;42.670;23.318;2023-02-17T07:37:17;47.83;;;19.60;;
6149;SDS011;3106;42.670;23.318;2023-02-17T07:39:45;61.60;;;21.50;;
6149;SDS011;3106;42.670;23.318;2023-02-17T07:42:12;46.97;;;20.50;;
6149;SDS011;3106;42.670;23.318;2023-02-17T07:44:39;56.80;;;21.20;;
6149;SDS011;3106;42.670;23.318;2023-02-17T07:47:06;45.17;;;19.13;;
6149;SDS011;3106;42.670;23.318;2023-02-17T07:49:33;52.50;;;21.67;;
6149;SDS011;3106;42.670;23.318;2023-02-17T07:52:00;49.83;;;22.20;;
6149;SDS011;3106;42.670;23.318;2023-02-17T07:54:28;50.03;;;21.30;;
6149;SDS011;3106;42.670;23.318;2023-02-17T07:56:55;43.63;;;20.30;;
6149;SDS011;3106;42.670;23.318;2023-02-17T07:59:21;69.10;;;27.17;;
6149;SDS011;3106;42.670;23.318;2023-02-17T08:01:48;52.97;;;21.40;;
6149;SDS011;3106;42.670;23.318;2023-02-17T08:04:15;53.27;;;20.70;;
6149;SDS011;3106;42.670;23.318;2023-02-17T08:06:42;54.43;;;21.50;;
6149;SDS011;3106;42.670;23.318;2023-02-17T08:09:09;54.83;;;22.60;;
6149;SDS011;3106;42.670;23.318;2023-02-17T08:11:54;60.43;;;22.93;;
6149;SDS011;3106;42.670;23.318;2023-02-17T08:14:39;46.50;;;19.67;;
6149;SDS011;3106;42.670;23.318;2023-02-17T08:17:06;48.80;;;21.63;;
6149;SDS011;3106;42.670;23.318;2023-02-17T08:19:33;54.10;;;24.00;;
6149;SDS011;3106;42.670;23.318;2023-02-17T08:21:59;60.37;;;23.40;;
6149;SDS011;3106;42.670;23.318;2023-02-17T08:24:27;52.40;;;22.40;;
6149;SDS011;3106;42.670;23.318;2023-02-17T08:26:55;62.73;;;23.90;;
6149;SDS011;3106;42.670;23.318;2023-02-17T08:29:22;49.83;;;23.03;;
6149;SDS011;3106;42.670;23.318;2023-02-17T08:31:50;62.67;;;24.43;;
6149;SDS011;3106;42.670;23.318;2023-02-17T08:34:18;50.57;;;25.13;;
6149;SDS011;3106;42.670;23.318;2023-02-17T08:36:45;65.97;;;24.80;;
6149;SDS011;3106;42.670;23.318;2023-02-17T08:39:12;60.50;;;24.60;;
6149;SDS011;3106;42.670;23.318;2023-02-17T08:41:43;54.70;;;24.20;;
6149;SDS011;3106;42.670;23.318;2023-02-17T08:44:13;59.10;;;24.90;;
6149;SDS011;3106;42.670;23.318;2023-02-17T08:46:41;68.83;;;24.33;;
6149;SDS011;3106;42.670;23.318;2023-02-17T08:49:09;59.60;;;21.93;;
6149;SDS011;3106;42.670;23.318;2023-02-17T08:51:36;59.27;;;26.03;;
6149;SDS011;3106;42.670;23.318;2023-02-17T08:54:03;76.47;;;27.80;;
6149;SDS011;3106;42.670;23.318;2023-02-17T08:56:31;57.57;;;27.20;;
6149;SDS011;3106;42.670;23.318;2023-02-17T08:58:59;56.53;;;23.00;;
6149;SDS011;3106;42.670;23.318;2023-02-17T09:01:28;72.07;;;24.03;;
6149;SDS011;3106;42.670;23.318;2023-02-17T09:03:56;51.40;;;21.13;;
6149;SDS011;3106;42.670;23.318;2023-02-17T09:06:30;52.73;;;20.50;;
6149;SDS011;3106;42.670;23.318;2023-02-17T09:08:59;21.00;;;10.43;;
6149;SDS011;3106;42.670;23.318;2023-02-17T09:11:26;25.43;;;10.20;;
6149;SDS011;3106;42.670;23.318;2023-02-17T09:13:53;15.50;;;7.23;;
6149;SDS011;3106;42.670;23.318;2023-02-17T09:16:19;15.27;;;7.10;;
6149;SDS011;3106;42.670;23.318;2023-02-17T09:18:50;14.40;;;6.50;;
6149;SDS011;3106;42.670;23.318;2023-02-17T09:21:17;15.90;;;6.07;;
6149;SDS011;3106;42.670;23.318;2023-02-17T09:23:44;15.73;;;7.50;;
6149;SDS011;3106;42.670;23.318;2023-02-17T09:26:12;16.23;;;7.50;;
6149;SDS011;3106;42.670;23.318;2023-02-17T09:28:41;18.20;;;7.60;;
6149;SDS011;3106;42.670;23.318;2023-02-17T09:31:09;17.50;;;7.20;;
6149;SDS011;3106;42.670;23.318;2023-02-17T09:33:37;16.30;;;8.07;;
6149;SDS011;3106;42.670;23.318;2023-02-17T09:36:06;18.00;;;8.00;;
6149;SDS011;3106;42.670;23.318;2023-02-17T09:38:36;10.20;;;6.20;;
6149;SDS011;3106;42.670;23.318;2023-02-17T09:41:05;22.33;;;6.90;;
6149;SDS011;3106;42.670;23.318;2023-02-17T09:43:41;24.67;;;8.00;;
6149;SDS011;3106;42.670;23.318;2023-02-17T09:46:09;11.57;;;6.00;;
6149;SDS011;3106;42.670;23.318;2023-02-17T09:48:39;14.70;;;7.00;;
6149;SDS011;3106;42.670;23.318;2023-02-17T09:51:12;13.23;;;6.50;;
6149;SDS011;3106;42.670;23.318;2023-02-17T09:53:48;28.77;;;5.70;;
6149;SDS011;3106;42.670;23.318;2023-02-17T09:56:21;15.80;;;7.70;;
6149;SDS011;3106;42.670;23.318;2023-02-17T09:58:56;19.20;;;6.70;;
6149;SDS011;3106;42.670;23.318;2023-02-17T10:01:27;17.30;;;6.43;;
6149;SDS011;3106;42.670;23.318;2023-02-17T10:03:58;9.00;;;5.47;;
6149;SDS011;3106;42.670;23.318;2023-02-17T10:06:32;14.10;;;5.50;;
6149;SDS011;3106;42.670;23.318;2023-02-17T10:09:03;11.17;;;5.47;;
6149;SDS011;3106;42.670;23.318;2023-02-17T10:11:38;8.67;;;5.27;;
6149;SDS011;3106;42.670;23.318;2023-02-17T10:14:10;12.53;;;6.00;;
6149;SDS011;3106;42.670;23.318;2023-02-17T10:16:50;14.87;;;5.80;;
6149;SDS011;3106;42.670;23.318;2023-02-17T10:19:24;10.83;;;6.10;;
6149;SDS011;3106;42.670;23.318;2023-02-17T10:21:57;8.07;;;5.00;;
6149;SDS011;3106;42.670;23.318;2023-02-17T10:24:31;11.40;;;5.13;;
6149;SDS011;3106;42.670;23.318;2023-02-17T10:27:01;8.53;;;4.40;;
6149;SDS011;3106;42.670;23.318;2023-02-17T10:29:41;11.27;;;4.87;;
6149;SDS011;3106;42.670;23.318;2023-02-17T10:32:19;16.80;;;5.60;;
6149;SDS011;3106;42.670;23.318;2023-02-17T10:34:51;9.37;;;4.90;;
6149;SDS011;3106;42.670;23.318;2023-02-17T10:37:38;13.00;;;5.30;;
6149;SDS011;3106;42.670;23.318;2023-02-17T10:40:13;7.53;;;4.90;;
6149;SDS011;3106;42.670;23.318;2023-02-17T10:42:46;10.37;;;6.00;;
6149;SDS011;3106;42.670;23.318;2023-02-17T10:45:18;14.63;;;6.07;;
6149;SDS011;3106;42.670;23.318;2023-02-17T10:47:51;9.60;;;5.30;;
6149;SDS011;3106;42.670;23.318;2023-02-17T10:50:23;10.20;;;5.47;;
6149;SDS011;3106;42.670;23.318;2023-02-17T10:52:52;15.77;;;5.73;;
6149;SDS011;3106;42.670;23.318;2023-02-17T10:55:22;10.67;;;5.10;;
6149;SDS011;3106;42.670;23.318;2023-02-17T10:57:56;10.70;;;5.50;;
6149;SDS011;3106;42.670;23.318;2023-02-17T11:00:29;12.03;;;5.73;;
6149;SDS011;3106;42.670;23.318;2023-02-17T11:02:56;9.70;;;5.53;;
6149;SDS011;3106;42.670;23.318;2023-02-17T11:05:26;14.37;;;5.00;;
6149;SDS011;3106;42.670;23.318;2023-02-17T11:07:59;19.83;;;5.93;;
6149;SDS011;3106;42.670;23.318;2023-02-17T11:10:28;11.70;;;5.93;;
6149;SDS011;3106;42.670;23.318;2023-02-17T11:12:57;11.40;;;5.50;;
6149;SDS011;3106;42.670;23.318;2023-02-17T11:15:28;12.17;;;6.50;;
6149;SDS011;3106;42.670;23.318;2023-02-17T11:17:58;12.53;;;5.90;;
6149;SDS011;3106;42.670;23.318;2023-02-17T11:20:33;11.10;;;5.23;;
6149;SDS011;3106;42.670;23.318;2023-02-17T11:23:05;10.30;;;5.23;;
6149;SDS011;3106;42.670;23.318;2023-02-17T11:25:54;12.47;;;5.50;;
6149;SDS011;3106;42.670;23.318;2023-02-17T11:28:23;12.13;;;6.10;;
6149;SDS011;3106;42.670;23.318;2023-02-17T11:30:55;12.57;;;6.67;;
6149;SDS011;3106;42.670;23.318;2023-02-17T11:33:29;12.50;;;5.67;;
6149;SDS011;3106;42.670;23.318;2023-02-17T11:35:58;11.50;;;5.77;;
6149;SDS011;3106;42.670;23.318;2023-02-17T11:38:40;10.60;;;5.93;;
6149;SDS011;3106;42.670;23.318;2023-02-17T11:41:09;13.53;;;5.90;;
6149;SDS011;3106;42.670;23.318;2023-02-17T11:43:36;12.33;;;6.53;;
6149;SDS011;3106;42.670;23.318;2023-02-17T11:52:02;13.10;;;6.57;;
6149;SDS011;3106;42.670;23.318;2023-02-17T11:54:42;11.63;;;6.10;;
6149;SDS011;3106;42.670;23.318;2023-02-17T11:57:23;15.70;;;6.83;;
6149;SDS011;3106;42.670;23.318;2023-02-17T12:00:04;14.27;;;7.00;;
6149;SDS011;3106;42.670;23.318;2023-02-17T12:03:01;13.57;;;6.07;;
6149;SDS011;3106;42.670;23.318;2023-02-17T12:05:54;13.53;;;5.10;;
6149;SDS011;3106;42.670;23.318;2023-02-17T12:08:31;12.53;;;6.40;;
6149;SDS011;3106;42.670;23.318;2023-02-17T12:11:13;12.03;;;6.03;;
6149;SDS011;3106;42.670;23.318;2023-02-17T12:13:48;14.73;;;6.43;;
6149;SDS011;3106;42.670;23.318;2023-02-17T12:16:26;16.17;;;7.10;;
6149;SDS011;3106;42.670;23.318;2023-02-17T12:19:15;13.93;;;6.30;;
6149;SDS011;3106;42.670;23.318;2023-02-17T12:21:57;13.77;;;7.00;;
6149;SDS011;3106;42.670;23.318;2023-02-17T12:27:48;13.37;;;6.60;;
6149;SDS011;3106;42.670;23.318;2023-02-17T12:30:29;20.27;;;7.13;;
6149;SDS011;3106;42.670;23.318;2023-02-17T12:33:16;12.63;;;5.80;;
6149;SDS011;3106;42.670;23.318;2023-02-17T12:36:02;11.90;;;6.40;;
6149;SDS011;3106;42.670;23.318;2023-02-17T12:38:34;12.00;;;6.80;;
6149;SDS011;3106;42.670;23.318;2023-02-17T12:41:06;12.67;;;6.87;;
6149;SDS011;3106;42.670;23.318;2023-02-17T12:43:39;10.90;;;6.03;;
6149;SDS011;3106;42.670;23.318;2023-02-17T12:46:11;11.67;;;6.47;;
6149;SDS011;3106;42.670;23.318;2023-02-17T12:48:41;11.97;;;5.60;;
6149;SDS011;3106;42.670;23.318;2023-02-17T12:51:16;11.57;;;6.00;;
6149;SDS011;3106;42.670;23.318;2023-02-17T12:53:48;13.70;;;6.10;;
6149;SDS011;3106;42.670;23.318;2023-02-17T12:56:38;12.73;;;6.87;;
6149;SDS011;3106;42.670;23.318;2023-02-17T12:59:18;12.10;;;6.20;;
6149;SDS011;3106;42.670;23.318;2023-02-17T13:01:51;12.17;;;6.37;;
6149;SDS011;3106;42.670;23.318;2023-02-17T13:04:25;10.93;;;5.50;;
6149;SDS011;3106;42.670;23.318;2023-02-17T13:06:58;12.23;;;6.00;;
6149;SDS011;3106;42.670;23.318;2023-02-17T13:09:33;9.17;;;5.80;;
6149;SDS011;3106;42.670;23.318;2023-02-17T13:12:09;10.03;;;5.27;;
6149;SDS011;3106;42.670;23.318;2023-02-17T13:14:45;14.63;;;5.63;;
6149;SDS011;3106;42.670;23.318;2023-02-17T13:17:21;12.37;;;6.10;;
6149;SDS011;3106;42.670;23.318;2023-02-17T13:19:59;13.20;;;5.23;;
6149;SDS011;3106;42.670;23.318;2023-02-17T13:22:46;14.17;;;6.40;;
6149;SDS011;3106;42.670;23.318;2023-02-17T13:25:26;8.83;;;5.60;;
6149;SDS011;3106;42.670;23.318;2023-02-17T13:27:56;15.27;;;6.10;;
6149;SDS011;3106;42.670;23.318;2023-02-17T13:30:29;8.37;;;5.00;;
6149;SDS011;3106;42.670;23.318;2023-02-17T13:33:04;9.73;;;5.00;;
6149;SDS011;3106;42.670;23.318;2023-02-17T13:35:53;8.90;;;5.57;;
6149;SDS011;3106;42.670;23.318;2023-02-17T13:38:27;9.30;;;5.57;;
6149;SDS011;3106;42.670;23.318;2023-02-17T13:40:57;7.10;;;4.70;;
6149;SDS011;3106;42.670;23.318;2023-02-17T13:43:29;7.27;;;4.00;;
6149;SDS011;3106;42.670;23.318;2023-02-17T13:45:58;6.20;;;4.17;;
6149;SDS011;3106;42.670;23.318;2023-02-17T13:48:28;8.97;;;4.13;;
6149;SDS011;3106;42.670;23.318;2023-02-17T13:50:58;8.03;;;4.17;;
6149;SDS011;3106;42.670;23.318;2023-02-17T13:53:27;10.20;;;4.43;;
6149;SDS011;3106;42.670;23.318;2023-02-17T13:55:56;9.17;;;4.57;;
6149;SDS011;3106;42.670;23.318;2023-02-17T13:58:25;9.10;;;4.87;;
6149;SDS011;3106;42.670;23.318;2023-02-17T14:00:56;7.60;;;4.33;;
6149;SDS011;3106;42.670;23.318;2023-02-17T14:05:56;6.80;;;4.03;;
6149;SDS011;3106;42.670;23.318;2023-02-17T14:08:28;7.40;;;3.60;;
6149;SDS011;3106;42.670;23.318;2023-02-17T14:11:02;8.50;;;3.17;;
6149;SDS011;3106;42.670;23.318;2023-02-17T14:13:33;5.40;;;3.80;;
6149;SDS011;3106;42.670;23.318;2023-02-17T14:16:02;6.97;;;3.90;;
6149;SDS011;3106;42.670;23.318;2023-02-17T14:18:32;11.93;;;4.60;;
6149;SDS011;3106;42.670;23.318;2023-02-17T14:21:05;7.30;;;5.00;;
6149;SDS011;3106;42.670;23.318;2023-02-17T14:23:40;8.50;;;4.87;;
6149;SDS011;3106;42.670;23.318;2023-02-17T14:26:10;12.90;;;5.57;;
6149;SDS011;3106;42.670;23.318;2023-02-17T14:28:39;13.00;;;5.83;;
6149;SDS011;3106;42.670;23.318;2023-02-17T14:31:17;11.83;;;6.20;;
6149;SDS011;3106;42.670;23.318;2023-02-17T14:33:50;14.83;;;6.00;;
6149;SDS011;3106;42.670;23.318;2023-02-17T14:36:24;12.33;;;6.43;;
6149;SDS011;3106;42.670;23.318;2023-02-17T14:38:53;15.03;;;5.63;;
6149;SDS011;3106;42.670;23.318;2023-02-17T14:41:22;13.73;;;6.77;;
6149;SDS011;3106;42.670;23.318;2023-02-17T14:43:49;15.93;;;6.87;;
6149;SDS011;3106;42.670;23.318;2023-02-17T14:46:17;14.03;;;7.00;;
6149;SDS011;3106;42.670;23.318;2023-02-17T14:48:44;11.70;;;6.60;;
6149;SDS011;3106;42.670;23.318;2023-02-17T14:51:12;14.97;;;7.07;;
6149;SDS011;3106;42.670;23.318;2023-02-17T14:53:39;20.30;;;9.00;;
6149;SDS011;3106;42.670;23.318;2023-02-17T14:56:08;17.03;;;7.40;;
6149;SDS011;3106;42.670;23.318;2023-02-17T14:58:43;17.60;;;7.90;;
6149;SDS011;3106;42.670;23.318;2023-02-17T15:01:10;21.50;;;7.90;;
6149;SDS011;3106;42.670;23.318;2023-02-17T15:03:40;17.77;;;8.10;;
6149;SDS011;3106;42.670;23.318;2023-02-17T15:06:10;13.87;;;8.00;;
6149;SDS011;3106;42.670;23.318;2023-02-17T15:08:38;14.70;;;7.80;;
6149;SDS011;3106;42.670;23.318;2023-02-17T15:11:09;18.70;;;7.50;;
6149;SDS011;3106;42.670;23.318;2023-02-17T15:13:46;12.00;;;7.40;;
6149;SDS011;3106;42.670;23.318;2023-02-17T15:16:13;15.43;;;7.40;;
6149;SDS011;3106;42.670;23.318;2023-02-17T15:18:41;12.73;;;7.27;;
6149;SDS011;3106;42.670;23.318;2023-02-17T15:21:16;25.93;;;9.93;;